sensor_id;sensor_type;location;lat;lon;timestamp;pressure;altitude;pressure_sealevel;temperature;humidity
60705;BME280;46545;38.014;-7.874;2024-03-06T00:00:08;99482.53;;;9.62;100.00
60705;BME280;46545;38.014;-7.874;2024-03-06T00:02:09;99479.69;;;9.57;100.00
60705;BME280;46545;38.014;-7.874;2024-03-06T00:04:10;99477.25;;;9.55;100.00
60705;BME280;46545;38.014;-7.874;2024-03-06T00:06:11;99480.38;;;9.52;100.00
60705;BME280;46545;38.014;-7.874;2024-03-06T00:08:11;99472.56;;;9.50;100.00
60705;BME280;46545;38.014;-7.874;2024-03-06T00:10:12;99475.69;;;9.47;100.00
60705;BME280;46545;38.014;-7.874;2024-03-06T00:12:13;99474.66;;;9.48;100.00
60705;BME280;46545;38.014;-7.874;2024-03-06T00:14:13;99483.94;;;9.46;100.00
60705;BME280;46545;38.014;-7.874;2024-03-06T00:16:14;99478.00;;;9.44;100.00
60705;BME280;46545;38.014;-7.874;2024-03-06T00:18:15;99491.16;;;9.45;100.00
60705;BME280;46545;38.014;-7.874;2024-03-06T00:20:15;99491.38;;;9.44;100.00
60705;BME280;46545;38.014;-7.874;2024-03-06T00:22:16;99488.78;;;9.37;100.00
60705;BME280;46545;38.014;-7.874;2024-03-06T00:24:17;99483.56;;;9.42;100.00
60705;BME280;46545;38.014;-7.874;2024-03-06T00:26:18;99482.63;;;9.37;100.00
60705;BME280;46545;38.014;-7.874;2024-03-06T00:28:18;99479.94;;;9.37;100.00
60705;BME280;46545;38.014;-7.874;2024-03-06T00:30:19;99478.50;;;9.34;100.00
60705;BME280;46545;38.014;-7.874;2024-03-06T00:32:20;99468.06;;;9.33;100.00
60705;BME280;46545;38.014;-7.874;2024-03-06T00:34:21;99462.22;;;9.17;100.00
60705;BME280;46545;38.014;-7.874;2024-03-06T00:36:21;99467.28;;;9.25;100.00
60705;BME280;46545;38.014;-7.874;2024-03-06T00:38:23;99468.78;;;9.21;100.00
60705;BME280;46545;38.014;-7.874;2024-03-06T00:40:23;99467.81;;;9.16;100.00
60705;BME280;46545;38.014;-7.874;2024-03-06T00:42:24;99470.72;;;9.14;100.00
60705;BME280;46545;38.014;-7.874;2024-03-06T00:44:25;99474.19;;;9.15;100.00
60705;BME280;46545;38.014;-7.874;2024-03-06T00:46:25;99477.34;;;9.12;100.00
60705;BME280;46545;38.014;-7.874;2024-03-06T00:48:26;99476.72;;;9.09;100.00
60705;BME280;46545;38.014;-7.874;2024-03-06T00:50:27;99473.59;;;9.13;100.00
60705;BME280;46545;38.014;-7.874;2024-03-06T00:52:27;99470.53;;;9.09;100.00
60705;BME280;46545;38.014;-7.874;2024-03-06T00:54:28;99467.44;;;9.12;100.00
60705;BME280;46545;38.014;-7.874;2024-03-06T00:56:29;99465.56;;;9.13;100.00
60705;BME280;46545;38.014;-7.874;2024-03-06T00:58:29;99463.38;;;9.09;100.00
60705;BME280;46545;38.014;-7.874;2024-03-06T01:00:30;99461.94;;;9.07;100.00
60705;BME280;46545;38.014;-7.874;2024-03-06T01:02:30;99472.28;;;9.03;100.00
60705;BME280;46545;38.014;-7.874;2024-03-06T01:04:31;99461.94;;;9.07;100.00
60705;BME280;46545;38.014;-7.874;2024-03-06T01:06:32;99466.91;;;9.03;100.00
60705;BME280;46545;38.014;-7.874;2024-03-06T01:08:33;99465.28;;;9.02;100.00
60705;BME280;46545;38.014;-7.874;2024-03-06T01:10:34;99458.94;;;8.97;100.00
60705;BME280;46545;38.014;-7.874;2024-03-06T01:12:35;99464.97;;;8.92;100.00
60705;BME280;46545;38.014;-7.874;2024-03-06T01:14:36;99463.94;;;8.93;100.00
60705;BME280;46545;38.014;-7.874;2024-03-06T01:16:37;99457.31;;;8.96;100.00
60705;BME280;46545;38.014;-7.874;2024-03-06T01:18:37;99456.28;;;8.97;100.00
60705;BME280;46545;38.014;-7.874;2024-03-06T01:20:38;99449.53;;;8.94;100.00
60705;BME280;46545;38.014;-7.874;2024-03-06T01:22:39;99456.13;;;8.92;100.00
60705;BME280;46545;38.014;-7.874;2024-03-06T01:24:39;99451.38;;;8.94;100.00
60705;BME280;46545;38.014;-7.874;2024-03-06T01:26:40;99447.50;;;8.89;100.00
60705;BME280;46545;38.014;-7.874;2024-03-06T01:28:41;99452.06;;;8.89;100.00
60705;BME280;46545;38.014;-7.874;2024-03-06T01:30:41;99453.59;;;8.97;100.00
60705;BME280;46545;38.014;-7.874;2024-03-06T01:32:42;99461.03;;;8.95;100.00
60705;BME280;46545;38.014;-7.874;2024-03-06T01:34:43;99450.31;;;8.95;100.00
60705;BME280;46545;38.014;-7.874;2024-03-06T01:36:43;99445.22;;;8.93;100.00
60705;BME280;46545;38.014;-7.874;2024-03-06T01:38:44;99436.59;;;8.91;100.00
60705;BME280;46545;38.014;-7.874;2024-03-06T01:40:46;99439.41;;;8.96;100.00
60705;BME280;46545;38.014;-7.874;2024-03-06T01:42:47;99440.47;;;8.95;100.00
60705;BME280;46545;38.014;-7.874;2024-03-06T01:44:51;99436.38;;;8.93;100.00
60705;BME280;46545;38.014;-7.874;2024-03-06T01:46:52;99439.22;;;8.98;100.00
60705;BME280;46545;38.014;-7.874;2024-03-06T01:48:53;99434.28;;;8.95;100.00
60705;BME280;46545;38.014;-7.874;2024-03-06T01:50:55;99428.59;;;8.91;100.00
60705;BME280;46545;38.014;-7.874;2024-03-06T01:52:56;99427.41;;;8.87;100.00
60705;BME280;46545;38.014;-7.874;2024-03-06T01:54:57;99422.78;;;8.94;100.00
60705;BME280;46545;38.014;-7.874;2024-03-06T01:56:58;99418.13;;;8.89;100.00
60705;BME280;46545;38.014;-7.874;2024-03-06T01:59:03;99425.16;;;9.02;100.00
60705;BME280;46545;38.014;-7.874;2024-03-06T02:01:04;99421.91;;;9.00;100.00
60705;BME280;46545;38.014;-7.874;2024-03-06T02:03:05;99431.31;;;9.03;100.00
60705;BME280;46545;38.014;-7.874;2024-03-06T02:05:06;99427.72;;;8.97;100.00
60705;BME280;46545;38.014;-7.874;2024-03-06T02:07:10;99419.31;;;8.94;100.00
60705;BME280;46545;38.014;-7.874;2024-03-06T02:09:12;99419.44;;;8.99;100.00
60705;BME280;46545;38.014;-7.874;2024-03-06T02:11:14;99415.53;;;9.01;100.00
60705;BME280;46545;38.014;-7.874;2024-03-06T02:13:17;99414.47;;;9.02;100.00
60705;BME280;46545;38.014;-7.874;2024-03-06T02:15:18;99409.34;;;9.01;100.00
60705;BME280;46545;38.014;-7.874;2024-03-06T02:17:19;99404.47;;;8.98;100.00
60705;BME280;46545;38.014;-7.874;2024-03-06T02:19:20;99407.25;;;9.03;100.00
60705;BME280;46545;38.014;-7.874;2024-03-06T02:21:21;99408.25;;;9.08;100.00
60705;BME280;46545;38.014;-7.874;2024-03-06T02:23:22;99407.94;;;9.17;100.00
60705;BME280;46545;38.014;-7.874;2024-03-06T02:25:23;99407.06;;;9.23;100.00
60705;BME280;46545;38.014;-7.874;2024-03-06T02:27:23;99403.78;;;9.21;100.00
60705;BME280;46545;38.014;-7.874;2024-03-06T02:29:24;99398.44;;;9.02;100.00
60705;BME280;46545;38.014;-7.874;2024-03-06T02:31:25;99400.00;;;8.92;100.00
60705;BME280;46545;38.014;-7.874;2024-03-06T02:33:26;99386.72;;;8.85;100.00
60705;BME280;46545;38.014;-7.874;2024-03-06T02:35:26;99388.19;;;8.81;100.00
60705;BME280;46545;38.014;-7.874;2024-03-06T02:37:27;99387.75;;;8.84;100.00
60705;BME280;46545;38.014;-7.874;2024-03-06T02:39:28;99391.38;;;8.89;100.00
60705;BME280;46545;38.014;-7.874;2024-03-06T02:41:29;99393.47;;;8.87;100.00
60705;BME280;46545;38.014;-7.874;2024-03-06T02:43:30;99385.00;;;8.91;100.00
60705;BME280;46545;38.014;-7.874;2024-03-06T02:45:31;99381.44;;;8.97;100.00
60705;BME280;46545;38.014;-7.874;2024-03-06T02:47:32;99377.13;;;8.96;100.00
60705;BME280;46545;38.014;-7.874;2024-03-06T02:49:32;99374.97;;;8.86;100.00
60705;BME280;46545;38.014;-7.874;2024-03-06T02:51:33;99373.09;;;8.86;100.00
60705;BME280;46545;38.014;-7.874;2024-03-06T02:53:34;99370.38;;;8.93;100.00
60705;BME280;46545;38.014;-7.874;2024-03-06T02:55:34;99368.06;;;8.97;100.00
60705;BME280;46545;38.014;-7.874;2024-03-06T02:57:35;99368.44;;;9.00;100.00
60705;BME280;46545;38.014;-7.874;2024-03-06T02:59:35;99366.81;;;8.99;100.00
60705;BME280;46545;38.014;-7.874;2024-03-06T03:01:36;99364.75;;;9.01;100.00
60705;BME280;46545;38.014;-7.874;2024-03-06T03:03:37;99362.50;;;8.98;100.00
60705;BME280;46545;38.014;-7.874;2024-03-06T03:05:38;99357.16;;;8.98;100.00
60705;BME280;46545;38.014;-7.874;2024-03-06T03:07:39;99353.47;;;8.99;100.00
60705;BME280;46545;38.014;-7.874;2024-03-06T03:09:40;99362.06;;;9.01;100.00
60705;BME280;46545;38.014;-7.874;2024-03-06T03:11:42;99364.16;;;8.99;100.00
60705;BME280;46545;38.014;-7.874;2024-03-06T03:13:44;99365.97;;;8.99;100.00
60705;BME280;46545;38.014;-7.874;2024-03-06T03:15:44;99364.16;;;8.99;100.00
60705;BME280;46545;38.014;-7.874;2024-03-06T03:17:45;99361.31;;;8.94;100.00
60705;BME280;46545;38.014;-7.874;2024-03-06T03:19:46;99364.06;;;8.87;100.00
60705;BME280;46545;38.014;-7.874;2024-03-06T03:21:46;99361.31;;;8.76;100.00
60705;BME280;46545;38.014;-7.874;2024-03-06T03:23:47;99360.81;;;8.85;100.00
60705;BME280;46545;38.014;-7.874;2024-03-06T03:25:50;99368.13;;;8.90;100.00
60705;BME280;46545;38.014;-7.874;2024-03-06T03:27:50;99361.59;;;8.86;100.00
60705;BME280;46545;38.014;-7.874;2024-03-06T03:29:51;99351.81;;;8.80;100.00
60705;BME280;46545;38.014;-7.874;2024-03-06T03:31:52;99361.47;;;8.81;100.00
60705;BME280;46545;38.014;-7.874;2024-03-06T03:33:53;99357.75;;;8.82;100.00
60705;BME280;46545;38.014;-7.874;2024-03-06T03:35:54;99345.19;;;8.82;100.00
60705;BME280;46545;38.014;-7.874;2024-03-06T03:37:54;99350.19;;;8.79;100.00
60705;BME280;46545;38.014;-7.874;2024-03-06T03:39:57;99348.41;;;8.91;100.00
60705;BME280;46545;38.014;-7.874;2024-03-06T03:41:57;99349.06;;;8.86;100.00
60705;BME280;46545;38.014;-7.874;2024-03-06T03:43:58;99343.34;;;8.83;100.00
60705;BME280;46545;38.014;-7.874;2024-03-06T03:45:59;99346.31;;;8.93;100.00
60705;BME280;46545;38.014;-7.874;2024-03-06T03:48:01;99352.47;;;8.94;100.00
60705;BME280;46545;38.014;-7.874;2024-03-06T03:50:03;99354.56;;;8.92;100.00
60705;BME280;46545;38.014;-7.874;2024-03-06T03:52:04;99349.13;;;8.98;100.00
60705;BME280;46545;38.014;-7.874;2024-03-06T03:54:05;99332.28;;;8.98;100.00
60705;BME280;46545;38.014;-7.874;2024-03-06T03:56:06;99348.91;;;9.00;100.00
60705;BME280;46545;38.014;-7.874;2024-03-06T03:58:06;99344.59;;;8.99;100.00
60705;BME280;46545;38.014;-7.874;2024-03-06T04:00:07;99344.84;;;8.97;100.00
60705;BME280;46545;38.014;-7.874;2024-03-06T04:02:12;99348.25;;;9.04;100.00
60705;BME280;46545;38.014;-7.874;2024-03-06T04:04:13;99336.44;;;8.94;100.00
60705;BME280;46545;38.014;-7.874;2024-03-06T04:06:14;99329.31;;;8.87;100.00
60705;BME280;46545;38.014;-7.874;2024-03-06T04:08:15;99330.59;;;8.85;100.00
60705;BME280;46545;38.014;-7.874;2024-03-06T04:10:15;99327.91;;;8.85;100.00
60705;BME280;46545;38.014;-7.874;2024-03-06T04:12:16;99325.25;;;8.85;100.00
60705;BME280;46545;38.014;-7.874;2024-03-06T04:14:17;99327.66;;;8.86;100.00
60705;BME280;46545;38.014;-7.874;2024-03-06T04:16:17;99322.91;;;8.88;100.00
60705;BME280;46545;38.014;-7.874;2024-03-06T04:18:18;99317.81;;;8.87;100.00
60705;BME280;46545;38.014;-7.874;2024-03-06T04:20:19;99308.16;;;8.86;100.00
60705;BME280;46545;38.014;-7.874;2024-03-06T04:22:19;99308.75;;;8.88;100.00
60705;BME280;46545;38.014;-7.874;2024-03-06T04:24:20;99303.56;;;8.93;100.00
60705;BME280;46545;38.014;-7.874;2024-03-06T04:26:21;99299.63;;;8.96;100.00
60705;BME280;46545;38.014;-7.874;2024-03-06T04:28:21;99303.69;;;8.98;100.00
60705;BME280;46545;38.014;-7.874;2024-03-06T04:30:22;99305.34;;;8.99;100.00
60705;BME280;46545;38.014;-7.874;2024-03-06T04:32:23;99305.34;;;8.99;100.00
60705;BME280;46545;38.014;-7.874;2024-03-06T04:34:24;99304.75;;;8.97;100.00
60705;BME280;46545;38.014;-7.874;2024-03-06T04:36:25;99304.75;;;8.97;100.00
60705;BME280;46545;38.014;-7.874;2024-03-06T04:38:26;99305.19;;;8.94;100.00
60705;BME280;46545;38.014;-7.874;2024-03-06T04:40:26;99301.41;;;9.02;100.00
60705;BME280;46545;38.014;-7.874;2024-03-06T04:42:29;99301.81;;;8.99;100.00
60705;BME280;46545;38.014;-7.874;2024-03-06T04:44:33;99297.06;;;9.01;100.00
60705;BME280;46545;38.014;-7.874;2024-03-06T04:46:34;99294.50;;;8.94;100.00
60705;BME280;46545;38.014;-7.874;2024-03-06T04:48:35;99298.41;;;9.10;100.00
60705;BME280;46545;38.014;-7.874;2024-03-06T04:50:35;99297.81;;;9.08;100.00
60705;BME280;46545;38.014;-7.874;2024-03-06T04:52:37;99297.59;;;9.09;100.00
60705;BME280;46545;38.014;-7.874;2024-03-06T04:54:38;99297.66;;;9.03;100.00
60705;BME280;46545;38.014;-7.874;2024-03-06T04:56:39;99294.06;;;8.97;100.00
60705;BME280;46545;38.014;-7.874;2024-03-06T04:58:40;99292.78;;;9.00;100.00
60705;BME280;46545;38.014;-7.874;2024-03-06T05:00:41;99294.66;;;8.99;100.00
60705;BME280;46545;38.014;-7.874;2024-03-06T05:02:41;99290.53;;;8.97;100.00
60705;BME280;46545;38.014;-7.874;2024-03-06T05:04:42;99292.09;;;9.04;100.00
60705;BME280;46545;38.014;-7.874;2024-03-06T05:06:43;99288.13;;;8.95;100.00
60705;BME280;46545;38.014;-7.874;2024-03-06T05:08:44;99291.59;;;8.96;100.00
60705;BME280;46545;38.014;-7.874;2024-03-06T05:10:44;99291.69;;;8.89;100.00
60705;BME280;46545;38.014;-7.874;2024-03-06T05:12:45;99295.38;;;8.88;100.00
60705;BME280;46545;38.014;-7.874;2024-03-06T05:14:45;99296.19;;;8.88;100.00
60705;BME280;46545;38.014;-7.874;2024-03-06T05:16:46;99299.91;;;8.87;100.00
60705;BME280;46545;38.014;-7.874;2024-03-06T05:18:47;99295.00;;;8.84;100.00
60705;BME280;46545;38.014;-7.874;2024-03-06T05:20:47;99291.91;;;8.87;100.00
60705;BME280;46545;38.014;-7.874;2024-03-06T05:22:48;99282.91;;;8.82;100.00
60705;BME280;46545;38.014;-7.874;2024-03-06T05:24:49;99285.47;;;8.77;100.00
60705;BME280;46545;38.014;-7.874;2024-03-06T05:26:49;99290.56;;;8.78;100.00
60705;BME280;46545;38.014;-7.874;2024-03-06T05:28:51;99286.88;;;8.79;100.00
60705;BME280;46545;38.014;-7.874;2024-03-06T05:30:52;99289.66;;;8.84;100.00
60705;BME280;46545;38.014;-7.874;2024-03-06T05:32:53;99288.25;;;8.82;100.00
60705;BME280;46545;38.014;-7.874;2024-03-06T05:34:53;99286.19;;;8.84;100.00
60705;BME280;46545;38.014;-7.874;2024-03-06T05:36:54;99290.25;;;8.86;100.00
60705;BME280;46545;38.014;-7.874;2024-03-06T05:38:55;99295.97;;;8.90;100.00
60705;BME280;46545;38.014;-7.874;2024-03-06T05:40:55;99298.16;;;8.81;100.00
60705;BME280;46545;38.014;-7.874;2024-03-06T05:42:56;99300.44;;;8.78;100.00
60705;BME280;46545;38.014;-7.874;2024-03-06T05:44:57;99298.22;;;8.75;100.00
60705;BME280;46545;38.014;-7.874;2024-03-06T05:47:02;99297.25;;;8.69;100.00
60705;BME280;46545;38.014;-7.874;2024-03-06T05:49:02;99290.34;;;8.61;100.00
60705;BME280;46545;38.014;-7.874;2024-03-06T05:51:03;99292.72;;;8.69;100.00
60705;BME280;46545;38.014;-7.874;2024-03-06T05:53:06;99299.25;;;8.74;100.00
60705;BME280;46545;38.014;-7.874;2024-03-06T05:55:07;99297.97;;;8.76;100.00
60705;BME280;46545;38.014;-7.874;2024-03-06T05:57:07;99295.25;;;8.64;100.00
60705;BME280;46545;38.014;-7.874;2024-03-06T05:59:08;99299.13;;;8.68;100.00
60705;BME280;46545;38.014;-7.874;2024-03-06T06:01:09;99308.16;;;8.67;100.00
60705;BME280;46545;38.014;-7.874;2024-03-06T06:03:09;99302.09;;;8.60;100.00
60705;BME280;46545;38.014;-7.874;2024-03-06T06:05:13;99307.84;;;8.57;100.00
60705;BME280;46545;38.014;-7.874;2024-03-06T06:07:14;99305.84;;;8.53;100.00
60705;BME280;46545;38.014;-7.874;2024-03-06T06:09:16;99303.19;;;8.53;100.00
60705;BME280;46545;38.014;-7.874;2024-03-06T06:11:17;99304.81;;;8.54;100.00
60705;BME280;46545;38.014;-7.874;2024-03-06T06:13:18;99301.53;;;8.70;100.00
60705;BME280;46545;38.014;-7.874;2024-03-06T06:15:19;99311.88;;;8.66;100.00
60705;BME280;46545;38.014;-7.874;2024-03-06T06:17:20;99300.81;;;8.63;100.00
60705;BME280;46545;38.014;-7.874;2024-03-06T06:19:21;99307.72;;;8.71;100.00
60705;BME280;46545;38.014;-7.874;2024-03-06T06:21:21;99301.63;;;8.63;100.00
60705;BME280;46545;38.014;-7.874;2024-03-06T06:23:22;99312.69;;;8.85;100.00
60705;BME280;46545;38.014;-7.874;2024-03-06T06:25:23;99306.28;;;8.68;100.00
60705;BME280;46545;38.014;-7.874;2024-03-06T06:27:24;99296.56;;;8.55;100.00
60705;BME280;46545;38.014;-7.874;2024-03-06T06:29:25;99303.56;;;8.56;100.00
60705;BME280;46545;38.014;-7.874;2024-03-06T06:31:26;99303.56;;;8.56;100.00
60705;BME280;46545;38.014;-7.874;2024-03-06T06:33:27;99306.44;;;8.55;100.00
60705;BME280;46545;38.014;-7.874;2024-03-06T06:35:28;99306.66;;;8.53;100.00
60705;BME280;46545;38.014;-7.874;2024-03-06T06:37:28;99312.81;;;8.54;100.00
60705;BME280;46545;38.014;-7.874;2024-03-06T06:39:29;99311.59;;;8.56;100.00
60705;BME280;46545;38.014;-7.874;2024-03-06T06:41:29;99313.38;;;8.62;100.00
60705;BME280;46545;38.014;-7.874;2024-03-06T06:43:30;99311.44;;;8.69;100.00
60705;BME280;46545;38.014;-7.874;2024-03-06T06:45:31;99308.53;;;8.71;100.00
60705;BME280;46545;38.014;-7.874;2024-03-06T06:47:31;99311.63;;;8.68;100.00
60705;BME280;46545;38.014;-7.874;2024-03-06T06:49:32;99306.53;;;8.66;100.00
60705;BME280;46545;38.014;-7.874;2024-03-06T06:51:34;99307.78;;;8.64;100.00
60705;BME280;46545;38.014;-7.874;2024-03-06T06:53:35;99307.19;;;8.62;100.00
60705;BME280;46545;38.014;-7.874;2024-03-06T06:55:36;99300.94;;;8.68;100.00
60705;BME280;46545;38.014;-7.874;2024-03-06T06:57:37;99306.59;;;8.78;100.00
60705;BME280;46545;38.014;-7.874;2024-03-06T06:59:38;99304.81;;;8.72;100.00
60705;BME280;46545;38.014;-7.874;2024-03-06T07:01:39;99308.63;;;8.83;100.00
60705;BME280;46545;38.014;-7.874;2024-03-06T07:03:41;99315.38;;;8.85;100.00
60705;BME280;46545;38.014;-7.874;2024-03-06T07:05:41;99319.81;;;8.92;100.00
60705;BME280;46545;38.014;-7.874;2024-03-06T07:07:42;99317.28;;;8.97;100.00
60705;BME280;46545;38.014;-7.874;2024-03-06T07:09:43;99312.38;;;8.94;100.00
60705;BME280;46545;38.014;-7.874;2024-03-06T07:11:44;99322.31;;;9.05;100.00
60705;BME280;46545;38.014;-7.874;2024-03-06T07:13:45;99312.47;;;9.05;100.00
60705;BME280;46545;38.014;-7.874;2024-03-06T07:15:45;99315.41;;;9.16;100.00
60705;BME280;46545;38.014;-7.874;2024-03-06T07:17:46;99318.00;;;9.22;100.00
60705;BME280;46545;38.014;-7.874;2024-03-06T07:19:47;99306.75;;;9.32;100.00
60705;BME280;46545;38.014;-7.874;2024-03-06T07:21:48;99317.81;;;9.36;100.00
60705;BME280;46545;38.014;-7.874;2024-03-06T07:23:49;99317.00;;;9.35;100.00
60705;BME280;46545;38.014;-7.874;2024-03-06T07:25:49;99321.75;;;9.33;100.00
60705;BME280;46545;38.014;-7.874;2024-03-06T07:27:51;99321.22;;;9.43;100.00
60705;BME280;46545;38.014;-7.874;2024-03-06T07:29:51;99326.09;;;9.46;99.40
60705;BME280;46545;38.014;-7.874;2024-03-06T07:31:52;99325.06;;;9.47;99.46
60705;BME280;46545;38.014;-7.874;2024-03-06T07:33:54;99325.94;;;9.71;97.92
60705;BME280;46545;38.014;-7.874;2024-03-06T07:35:54;99330.59;;;10.53;92.58
60705;BME280;46545;38.014;-7.874;2024-03-06T07:37:57;99334.63;;;13.01;72.43
60705;BME280;46545;38.014;-7.874;2024-03-06T07:39:57;99334.28;;;15.33;56.94
60705;BME280;46545;38.014;-7.874;2024-03-06T07:41:58;99327.75;;;17.09;48.83
60705;BME280;46545;38.014;-7.874;2024-03-06T07:43:59;99328.66;;;19.24;44.31
60705;BME280;46545;38.014;-7.874;2024-03-06T07:46:00;99337.97;;;20.46;39.86
60705;BME280;46545;38.014;-7.874;2024-03-06T07:48:01;99334.78;;;19.54;40.08
60705;BME280;46545;38.014;-7.874;2024-03-06T07:50:03;99330.53;;;17.48;44.29
60705;BME280;46545;38.014;-7.874;2024-03-06T07:52:05;99327.94;;;18.12;44.26
60705;BME280;46545;38.014;-7.874;2024-03-06T07:54:05;99333.41;;;19.75;40.70
60705;BME280;46545;38.014;-7.874;2024-03-06T07:56:10;99325.44;;;21.55;37.12
60705;BME280;46545;38.014;-7.874;2024-03-06T07:58:14;99332.63;;;23.04;33.88
60705;BME280;46545;38.014;-7.874;2024-03-06T08:00:17;99338.06;;;23.88;33.03
60705;BME280;46545;38.014;-7.874;2024-03-06T08:02:20;99327.72;;;25.05;30.68
60705;BME280;46545;38.014;-7.874;2024-03-06T08:04:22;99332.72;;;25.12;30.06
60705;BME280;46545;38.014;-7.874;2024-03-06T08:06:23;99332.78;;;24.47;30.83
60705;BME280;46545;38.014;-7.874;2024-03-06T08:08:25;99333.97;;;25.44;29.84
60705;BME280;46545;38.014;-7.874;2024-03-06T08:10:26;99333.19;;;25.65;28.86
60705;BME280;46545;38.014;-7.874;2024-03-06T08:12:26;99327.28;;;26.87;27.63
60705;BME280;46545;38.014;-7.874;2024-03-06T08:14:27;99327.75;;;26.77;27.77
60705;BME280;46545;38.014;-7.874;2024-03-06T08:16:28;99335.03;;;27.10;26.96
60705;BME280;46545;38.014;-7.874;2024-03-06T08:18:30;99334.94;;;26.82;27.01
60705;BME280;46545;38.014;-7.874;2024-03-06T08:20:31;99341.91;;;27.93;26.49
60705;BME280;46545;38.014;-7.874;2024-03-06T08:22:32;99325.53;;;27.20;26.03
60705;BME280;46545;38.014;-7.874;2024-03-06T08:24:33;99322.41;;;27.46;26.25
60705;BME280;46545;38.014;-7.874;2024-03-06T08:26:33;99317.53;;;27.27;26.62
60705;BME280;46545;38.014;-7.874;2024-03-06T08:28:34;99314.91;;;26.23;27.27
60705;BME280;46545;38.014;-7.874;2024-03-06T08:30:35;99314.97;;;27.22;26.43
60705;BME280;46545;38.014;-7.874;2024-03-06T08:32:36;99309.63;;;28.38;25.29
60705;BME280;46545;38.014;-7.874;2024-03-06T08:34:38;99306.94;;;28.10;25.30
60705;BME280;46545;38.014;-7.874;2024-03-06T08:36:39;99307.25;;;27.92;25.35
60705;BME280;46545;38.014;-7.874;2024-03-06T08:38:39;99297.91;;;27.69;25.38
60705;BME280;46545;38.014;-7.874;2024-03-06T08:40:41;99307.09;;;26.59;26.93
60705;BME280;46545;38.014;-7.874;2024-03-06T08:42:49;99301.38;;;26.64;27.07
60705;BME280;46545;38.014;-7.874;2024-03-06T08:44:50;99290.00;;;27.14;26.14
60705;BME280;46545;38.014;-7.874;2024-03-06T08:46:51;99292.88;;;26.93;26.44
60705;BME280;46545;38.014;-7.874;2024-03-06T08:48:51;99296.91;;;26.96;25.96
60705;BME280;46545;38.014;-7.874;2024-03-06T08:50:52;99297.00;;;27.12;26.44
60705;BME280;46545;38.014;-7.874;2024-03-06T08:52:53;99295.28;;;27.32;25.77
60705;BME280;46545;38.014;-7.874;2024-03-06T08:54:54;99297.00;;;28.05;25.44
60705;BME280;46545;38.014;-7.874;2024-03-06T08:56:54;99299.53;;;28.74;24.68
60705;BME280;46545;38.014;-7.874;2024-03-06T08:58:58;99299.44;;;28.86;24.21
60705;BME280;46545;38.014;-7.874;2024-03-06T09:00:59;99301.31;;;28.66;23.83
60705;BME280;46545;38.014;-7.874;2024-03-06T09:02:59;99306.31;;;29.47;23.92
60705;BME280;46545;38.014;-7.874;2024-03-06T09:05:00;99301.84;;;28.88;24.20
60705;BME280;46545;38.014;-7.874;2024-03-06T09:07:01;99299.53;;;28.58;24.51
60705;BME280;46545;38.014;-7.874;2024-03-06T09:09:01;99304.31;;;29.64;23.25
60705;BME280;46545;38.014;-7.874;2024-03-06T09:11:02;99295.34;;;30.52;22.46
60705;BME280;46545;38.014;-7.874;2024-03-06T09:13:03;99290.00;;;30.20;22.69
60705;BME280;46545;38.014;-7.874;2024-03-06T09:15:05;99289.13;;;29.93;22.65
60705;BME280;46545;38.014;-7.874;2024-03-06T09:17:07;99281.69;;;30.16;22.55
60705;BME280;46545;38.014;-7.874;2024-03-06T09:19:09;99283.88;;;30.76;22.32
60705;BME280;46545;38.014;-7.874;2024-03-06T09:21:10;99278.66;;;30.71;21.99
60705;BME280;46545;38.014;-7.874;2024-03-06T09:23:11;99271.06;;;31.18;21.59
60705;BME280;46545;38.014;-7.874;2024-03-06T09:25:12;99280.03;;;31.38;21.88
60705;BME280;46545;38.014;-7.874;2024-03-06T09:27:14;99279.09;;;30.27;22.52
60705;BME280;46545;38.014;-7.874;2024-03-06T09:29:16;99285.66;;;27.01;26.17
60705;BME280;46545;38.014;-7.874;2024-03-06T09:31:16;99286.06;;;23.88;29.62
60705;BME280;46545;38.014;-7.874;2024-03-06T09:33:17;99289.56;;;22.07;32.81
60705;BME280;46545;38.014;-7.874;2024-03-06T09:35:18;99290.69;;;20.28;36.55
60705;BME280;46545;38.014;-7.874;2024-03-06T09:37:19;99289.09;;;18.70;39.75
60705;BME280;46545;38.014;-7.874;2024-03-06T09:39:20;99283.25;;;18.04;41.40
60705;BME280;46545;38.014;-7.874;2024-03-06T09:41:23;99285.22;;;17.59;42.20
60705;BME280;46545;38.014;-7.874;2024-03-06T09:43:23;99287.75;;;16.90;43.64
60705;BME280;46545;38.014;-7.874;2024-03-06T09:45:24;99290.09;;;16.37;44.74
60705;BME280;46545;38.014;-7.874;2024-03-06T09:47:27;99283.34;;;16.14;45.45
60705;BME280;46545;38.014;-7.874;2024-03-06T09:49:31;99277.94;;;16.04;46.20
60705;BME280;46545;38.014;-7.874;2024-03-06T09:51:31;99275.78;;;15.85;48.08
60705;BME280;46545;38.014;-7.874;2024-03-06T09:53:32;99272.00;;;15.86;47.39
60705;BME280;46545;38.014;-7.874;2024-03-06T09:55:34;99272.25;;;15.64;48.46
60705;BME280;46545;38.014;-7.874;2024-03-06T09:57:38;99274.91;;;15.44;49.41
60705;BME280;46545;38.014;-7.874;2024-03-06T09:59:39;99267.03;;;15.17;51.33
60705;BME280;46545;38.014;-7.874;2024-03-06T10:01:47;99268.13;;;15.21;51.24
60705;BME280;46545;38.014;-7.874;2024-03-06T10:03:49;99269.78;;;15.37;51.33
60705;BME280;46545;38.014;-7.874;2024-03-06T10:05:51;99264.94;;;15.49;51.90
60705;BME280;46545;38.014;-7.874;2024-03-06T10:07:51;99261.44;;;15.69;51.23
60705;BME280;46545;38.014;-7.874;2024-03-06T10:10:10;99249.56;;;15.81;51.73
60705;BME280;46545;38.014;-7.874;2024-03-06T10:12:12;99247.16;;;15.84;52.02
60705;BME280;46545;38.014;-7.874;2024-03-06T10:14:13;99247.69;;;15.76;53.74
60705;BME280;46545;38.014;-7.874;2024-03-06T10:16:14;99249.53;;;15.70;53.86
60705;BME280;46545;38.014;-7.874;2024-03-06T10:18:15;99251.47;;;15.65;54.86
60705;BME280;46545;38.014;-7.874;2024-03-06T10:20:49;99254.69;;;15.67;54.43
60705;BME280;46545;38.014;-7.874;2024-03-06T10:23:07;99246.06;;;15.85;53.81
60705;BME280;46545;38.014;-7.874;2024-03-06T10:25:10;99245.50;;;15.93;52.14
60705;BME280;46545;38.014;-7.874;2024-03-06T10:27:15;99247.94;;;16.21;50.85
60705;BME280;46545;38.014;-7.874;2024-03-06T10:29:18;99253.34;;;16.05;51.83
60705;BME280;46545;38.014;-7.874;2024-03-06T10:31:27;99250.66;;;16.00;51.83
60705;BME280;46545;38.014;-7.874;2024-03-06T10:33:28;99262.03;;;15.92;51.91